sensor_id;sensor_type;location;lat;lon;timestamp;pressure;altitude;pressure_sealevel;temperature
20490;BMP280;10403;54.092;12.122;2023-10-31T00:00:34;99782.44;;;12.70
20490;BMP280;10403;54.092;12.122;2023-10-31T00:03:03;99768.59;;;12.67
20490;BMP280;10403;54.092;12.122;2023-10-31T00:05:31;99794.25;;;12.82
20490;BMP280;10403;54.092;12.122;2023-10-31T00:07:59;99746.97;;;12.60
20490;BMP280;10403;54.092;12.122;2023-10-31T00:10:27;99778.63;;;12.79
20490;BMP280;10403;54.092;12.122;2023-10-31T00:12:55;99778.50;;;12.82
20490;BMP280;10403;54.092;12.122;2023-10-31T00:15:22;99777.75;;;12.78
20490;BMP280;10403;54.092;12.122;2023-10-31T00:17:52;99762.97;;;12.76
20490;BMP280;10403;54.092;12.122;2023-10-31T00:20:22;99751.88;;;12.69
20490;BMP280;10403;54.092;12.122;2023-10-31T00:22:50;99762.91;;;12.77
20490;BMP280;10403;54.092;12.122;2023-10-31T00:25:18;99766.34;;;12.79
20490;BMP280;10403;54.092;12.122;2023-10-31T00:27:48;99771.28;;;12.87
20490;BMP280;10403;54.092;12.122;2023-10-31T00:30:21;99759.44;;;12.77
20490;BMP280;10403;54.092;12.122;2023-10-31T00:32:51;99743.94;;;12.71
20490;BMP280;10403;54.092;12.122;2023-10-31T00:35:18;99750.72;;;12.76
20490;BMP280;10403;54.092;12.122;2023-10-31T00:37:46;99747.06;;;12.80
20490;BMP280;10403;54.092;12.122;2023-10-31T00:40:15;99724.03;;;12.65
20490;BMP280;10403;54.092;12.122;2023-10-31T00:42:45;99705.38;;;12.51
20490;BMP280;10403;54.092;12.122;2023-10-31T00:45:14;99713.78;;;12.59
20490;BMP280;10403;54.092;12.122;2023-10-31T00:47:42;99708.53;;;12.59
20490;BMP280;10403;54.092;12.122;2023-10-31T00:50:11;99721.25;;;12.70
20490;BMP280;10403;54.092;12.122;2023-10-31T00:52:38;99691.91;;;12.60
20490;BMP280;10403;54.092;12.122;2023-10-31T00:55:07;99726.03;;;12.82
20490;BMP280;10403;54.092;12.122;2023-10-31T00:57:35;99719.91;;;12.81
20490;BMP280;10403;54.092;12.122;2023-10-31T01:00:03;99675.09;;;12.64
20490;BMP280;10403;54.092;12.122;2023-10-31T01:02:31;99673.41;;;12.63
20490;BMP280;10403;54.092;12.122;2023-10-31T01:05:00;99702.47;;;12.80
20490;BMP280;10403;54.092;12.122;2023-10-31T01:07:27;99661.22;;;12.62
20490;BMP280;10403;54.092;12.122;2023-10-31T01:09:55;99670.59;;;12.68
20490;BMP280;10403;54.092;12.122;2023-10-31T01:12:22;99688.66;;;12.75
20490;BMP280;10403;54.092;12.122;2023-10-31T01:14:49;99697.91;;;12.84
20490;BMP280;10403;54.092;12.122;2023-10-31T01:17:18;99676.59;;;12.71
20490;BMP280;10403;54.092;12.122;2023-10-31T01:19:45;99650.84;;;12.59
20490;BMP280;10403;54.092;12.122;2023-10-31T01:22:13;99649.13;;;12.58
20490;BMP280;10403;54.092;12.122;2023-10-31T01:24:40;99652.34;;;12.65
20490;BMP280;10403;54.092;12.122;2023-10-31T01:27:08;99656.63;;;12.67
20490;BMP280;10403;54.092;12.122;2023-10-31T01:29:36;99651.38;;;12.67
20490;BMP280;10403;54.092;12.122;2023-10-31T01:32:04;99670.22;;;12.77
20490;BMP280;10403;54.092;12.122;2023-10-31T01:34:35;99652.19;;;12.69
20490;BMP280;10403;54.092;12.122;2023-10-31T01:37:07;99655.47;;;12.74
20490;BMP280;10403;54.092;12.122;2023-10-31T01:39:38;99667.44;;;12.81
20490;BMP280;10403;54.092;12.122;2023-10-31T01:42:06;99620.28;;;12.58
20490;BMP280;10403;54.092;12.122;2023-10-31T01:44:35;99645.81;;;12.75
20490;BMP280;10403;54.092;12.122;2023-10-31T01:47:03;99640.63;;;12.73
20490;BMP280;10403;54.092;12.122;2023-10-31T01:49:30;99634.84;;;12.65
20490;BMP280;10403;54.092;12.122;2023-10-31T01:52:03;99635.47;;;12.72
20490;BMP280;10403;54.092;12.122;2023-10-31T01:54:34;99652.59;;;12.80
20490;BMP280;10403;54.092;12.122;2023-10-31T01:57:04;99628.63;;;12.68
20490;BMP280;10403;54.092;12.122;2023-10-31T01:59:34;99584.03;;;12.46
20490;BMP280;10403;54.092;12.122;2023-10-31T02:02:01;99634.56;;;12.73
20490;BMP280;10403;54.092;12.122;2023-10-31T02:04:30;99607.03;;;12.61
20490;BMP280;10403;54.092;12.122;2023-10-31T02:06:57;99595.16;;;12.52
20490;BMP280;10403;54.092;12.122;2023-10-31T02:09:24;99615.81;;;12.60
20490;BMP280;10403;54.092;12.122;2023-10-31T02:11:54;99608.81;;;12.60
20490;BMP280;10403;54.092;12.122;2023-10-31T02:14:24;99617.09;;;12.72
20490;BMP280;10403;54.092;12.122;2023-10-31T02:16:52;99605.06;;;12.66
20490;BMP280;10403;54.092;12.122;2023-10-31T02:19:21;99626.53;;;12.76
20490;BMP280;10403;54.092;12.122;2023-10-31T02:21:48;99616.09;;;12.74
20490;BMP280;10403;54.092;12.122;2023-10-31T02:24:16;99600.78;;;12.64
20490;BMP280;10403;54.092;12.122;2023-10-31T02:26:44;99582.22;;;12.48
20490;BMP280;10403;54.092;12.122;2023-10-31T02:29:12;99593.13;;;12.59
20490;BMP280;10403;54.092;12.122;2023-10-31T02:31:40;99580.91;;;12.58
20490;BMP280;10403;54.092;12.122;2023-10-31T02:34:07;99582.03;;;12.52
20490;BMP280;10403;54.092;12.122;2023-10-31T02:36:35;99587.13;;;12.55
20490;BMP280;10403;54.092;12.122;2023-10-31T02:39:02;99567.44;;;12.45
20490;BMP280;10403;54.092;12.122;2023-10-31T02:41:31;99557.22;;;12.39
20490;BMP280;10403;54.092;12.122;2023-10-31T02:44:00;99575.09;;;12.51
20490;BMP280;10403;54.092;12.122;2023-10-31T02:46:28;99528.16;;;12.23
20490;BMP280;10403;54.092;12.122;2023-10-31T02:48:55;99548.38;;;12.42
20490;BMP280;10403;54.092;12.122;2023-10-31T02:51:23;99543.19;;;12.40
20490;BMP280;10403;54.092;12.122;2023-10-31T02:53:50;99566.47;;;12.48
20490;BMP280;10403;54.092;12.122;2023-10-31T02:56:20;99521.00;;;12.27
20490;BMP280;10403;54.092;12.122;2023-10-31T02:58:48;99524.34;;;12.31
20490;BMP280;10403;54.092;12.122;2023-10-31T03:01:16;99516.50;;;12.31
20490;BMP280;10403;54.092;12.122;2023-10-31T03:03:47;99548.00;;;12.51
20490;BMP280;10403;54.092;12.122;2023-10-31T03:06:15;99547.09;;;12.52
20490;BMP280;10403;54.092;12.122;2023-10-31T03:08:44;99552.34;;;12.52
20490;BMP280;10403;54.092;12.122;2023-10-31T03:11:24;99532.50;;;12.45
20490;BMP280;10403;54.092;12.122;2023-10-31T03:13:53;99538.22;;;12.54
20490;BMP280;10403;54.092;12.122;2023-10-31T03:25:41;99546.28;;;12.50
20490;BMP280;10403;54.092;12.122;2023-10-31T03:28:20;99543.66;;;12.50
20490;BMP280;10403;54.092;12.122;2023-10-31T03:30:51;99530.03;;;12.42
20490;BMP280;10403;54.092;12.122;2023-10-31T03:33:18;99523.91;;;12.41
20490;BMP280;10403;54.092;12.122;2023-10-31T03:35:46;99533.97;;;12.52
20490;BMP280;10403;54.092;12.122;2023-10-31T03:38:14;99521.25;;;12.43
20490;BMP280;10403;54.092;12.122;2023-10-31T03:40:43;99506.81;;;12.33
20490;BMP280;10403;54.092;12.122;2023-10-31T03:43:11;99521.88;;;12.48
20490;BMP280;10403;54.092;12.122;2023-10-31T03:45:38;99520.19;;;12.47
20490;BMP280;10403;54.092;12.122;2023-10-31T03:48:06;99520.00;;;12.51
20490;BMP280;10403;54.092;12.122;2023-10-31T03:50:33;99508.72;;;12.49
20490;BMP280;10403;54.092;12.122;2023-10-31T03:53:00;99527.53;;;12.59
20490;BMP280;10403;54.092;12.122;2023-10-31T03:55:29;99475.91;;;12.39
20490;BMP280;10403;54.092;12.122;2023-10-31T03:57:57;99493.09;;;12.46
20490;BMP280;10403;54.092;12.122;2023-10-31T04:00:24;99481.06;;;12.42
20490;BMP280;10403;54.092;12.122;2023-10-31T04:02:52;99496.19;;;12.56
20490;BMP280;10403;54.092;12.122;2023-10-31T04:05:20;99468.00;;;12.41
20490;BMP280;10403;54.092;12.122;2023-10-31T04:07:47;99474.75;;;12.46
20490;BMP280;10403;54.092;12.122;2023-10-31T04:10:17;99478.09;;;12.50
20490;BMP280;10403;54.092;12.122;2023-10-31T04:12:45;99442.28;;;12.29
20490;BMP280;10403;54.092;12.122;2023-10-31T04:15:13;99453.97;;;12.42
20490;BMP280;10403;54.092;12.122;2023-10-31T04:17:41;99457.34;;;12.44
20490;BMP280;10403;54.092;12.122;2023-10-31T04:20:09;99455.28;;;12.52
20490;BMP280;10403;54.092;12.122;2023-10-31T04:22:36;99416.91;;;12.29
20490;BMP280;10403;54.092;12.122;2023-10-31T04:25:05;99429.47;;;12.43
20490;BMP280;10403;54.092;12.122;2023-10-31T04:27:34;99401.78;;;12.36
20490;BMP280;10403;54.092;12.122;2023-10-31T04:30:02;99411.75;;;12.48
20490;BMP280;10403;54.092;12.122;2023-10-31T04:32:29;99393.78;;;12.39
20490;BMP280;10403;54.092;12.122;2023-10-31T04:34:56;99372.41;;;12.28
20490;BMP280;10403;54.092;12.122;2023-10-31T04:37:24;99366.38;;;12.26
20490;BMP280;10403;54.092;12.122;2023-10-31T04:39:52;99382.38;;;12.40
20490;BMP280;10403;54.092;12.122;2023-10-31T04:42:19;99401.13;;;12.51
20490;BMP280;10403;54.092;12.122;2023-10-31T04:44:47;99366.31;;;12.27
20490;BMP280;10403;54.092;12.122;2023-10-31T04:47:15;99396.84;;;12.48
20490;BMP280;10403;54.092;12.122;2023-10-31T04:49:43;99407.94;;;12.55
20490;BMP280;10403;54.092;12.122;2023-10-31T04:52:11;99385.63;;;12.45
20490;BMP280;10403;54.092;12.122;2023-10-31T04:54:40;99402.56;;;12.58
20490;BMP280;10403;54.092;12.122;2023-10-31T04:57:07;99390.47;;;12.54
20490;BMP280;10403;54.092;12.122;2023-10-31T04:59:34;99397.25;;;12.59
20490;BMP280;10403;54.092;12.122;2023-10-31T05:02:02;99386.31;;;12.50
20490;BMP280;10403;54.092;12.122;2023-10-31T05:04:30;99387.75;;;12.57
20490;BMP280;10403;54.092;12.122;2023-10-31T05:06:57;99382.63;;;12.54
20490;BMP280;10403;54.092;12.122;2023-10-31T05:09:26;99389.38;;;12.59
20490;BMP280;10403;54.092;12.122;2023-10-31T05:11:54;99344.94;;;12.36
20490;BMP280;10403;54.092;12.122;2023-10-31T05:14:21;99375.75;;;12.51
20490;BMP280;10403;54.092;12.122;2023-10-31T05:16:48;99342.38;;;12.35
20490;BMP280;10403;54.092;12.122;2023-10-31T05:19:16;99376.31;;;12.58
20490;BMP280;10403;54.092;12.122;2023-10-31T05:21:43;99356.03;;;12.43
20490;BMP280;10403;54.092;12.122;2023-10-31T05:24:11;99379.00;;;12.56
20490;BMP280;10403;54.092;12.122;2023-10-31T05:26:39;99375.59;;;12.54
20490;BMP280;10403;54.092;12.122;2023-10-31T05:29:07;99361.91;;;12.48
20490;BMP280;10403;54.092;12.122;2023-10-31T05:31:35;99367.66;;;12.56
20490;BMP280;10403;54.092;12.122;2023-10-31T05:34:02;99388.19;;;12.67
20490;BMP280;10403;54.092;12.122;2023-10-31T05:36:31;99347.88;;;12.49
20490;BMP280;10403;54.092;12.122;2023-10-31T05:38:58;99357.19;;;12.56
20490;BMP280;10403;54.092;12.122;2023-10-31T05:41:26;99370.78;;;12.64
20490;BMP280;10403;54.092;12.122;2023-10-31T05:43:54;99344.13;;;12.54
20490;BMP280;10403;54.092;12.122;2023-10-31T05:46:22;99343.03;;;12.60
20490;BMP280;10403;54.092;12.122;2023-10-31T05:48:50;99369.56;;;12.73
20490;BMP280;10403;54.092;12.122;2023-10-31T05:51:19;99335.22;;;12.58
20490;BMP280;10403;54.092;12.122;2023-10-31T05:53:48;99317.34;;;12.48
20490;BMP280;10403;54.092;12.122;2023-10-31T05:56:16;99341.88;;;12.66
20490;BMP280;10403;54.092;12.122;2023-10-31T05:58:44;99328.31;;;12.56
20490;BMP280;10403;54.092;12.122;2023-10-31T06:01:12;99347.72;;;12.72
20490;BMP280;10403;54.092;12.122;2023-10-31T06:03:42;99349.41;;;12.73
20490;BMP280;10403;54.092;12.122;2023-10-31T06:06:13;99332.41;;;12.63
20490;BMP280;10403;54.092;12.122;2023-10-31T06:08:41;99335.94;;;12.62
20490;BMP280;10403;54.092;12.122;2023-10-31T06:11:09;99345.16;;;12.71
20490;BMP280;10403;54.092;12.122;2023-10-31T06:13:40;99317.19;;;12.51
20490;BMP280;10403;54.092;12.122;2023-10-31T06:16:08;99292.44;;;12.38
20490;BMP280;10403;54.092;12.122;2023-10-31T06:18:38;99352.13;;;12.72
20490;BMP280;10403;54.092;12.122;2023-10-31T06:21:06;99333.44;;;12.59
20490;BMP280;10403;54.092;12.122;2023-10-31T06:23:37;99323.88;;;12.58
20490;BMP280;10403;54.092;12.122;2023-10-31T06:26:05;99347.19;;;12.64
20490;BMP280;10403;54.092;12.122;2023-10-31T06:28:32;99337.72;;;12.62
20490;BMP280;10403;54.092;12.122;2023-10-31T06:31:07;99339.31;;;12.64
20490;BMP280;10403;54.092;12.122;2023-10-31T06:33:34;99337.47;;;12.66
20490;BMP280;10403;54.092;12.122;2023-10-31T06:36:02;99310.13;;;12.53
20490;BMP280;10403;54.092;12.122;2023-10-31T06:38:30;99327.00;;;12.66
20490;BMP280;10403;54.092;12.122;2023-10-31T06:40:57;99305.72;;;12.53
20490;BMP280;10403;54.092;12.122;2023-10-31T06:43:24;99344.75;;;12.80
20490;BMP280;10403;54.092;12.122;2023-10-31T06:45:52;99297.63;;;12.58
20490;BMP280;10403;54.092;12.122;2023-10-31T06:48:19;99323.09;;;12.75
20490;BMP280;10403;54.092;12.122;2023-10-31T06:50:46;99314.38;;;12.74
20490;BMP280;10403;54.092;12.122;2023-10-31T06:53:14;99340.06;;;12.86
20490;BMP280;10403;54.092;12.122;2023-10-31T06:55:42;99327.00;;;12.85
20490;BMP280;10403;54.092;12.122;2023-10-31T06:58:09;99323.41;;;12.87
20490;BMP280;10403;54.092;12.122;2023-10-31T07:00:36;99312.19;;;12.84
20490;BMP280;10403;54.092;12.122;2023-10-31T07:03:05;99315.59;;;12.86
20490;BMP280;10403;54.092;12.122;2023-10-31T07:05:36;99318.81;;;12.92
20490;BMP280;10403;54.092;12.122;2023-10-31T07:08:04;99323.88;;;12.95
20490;BMP280;10403;54.092;12.122;2023-10-31T07:10:32;99301.63;;;12.85
20490;BMP280;10403;54.092;12.122;2023-10-31T07:13:00;99310.22;;;12.89
20490;BMP280;10403;54.092;12.122;2023-10-31T07:15:27;99310.94;;;12.92
20490;BMP280;10403;54.092;12.122;2023-10-31T07:17:54;99291.91;;;12.87
20490;BMP280;10403;54.092;12.122;2023-10-31T07:20:22;99301.25;;;12.93
20490;BMP280;10403;54.092;12.122;2023-10-31T07:22:49;99291.00;;;12.88
20490;BMP280;10403;54.092;12.122;2023-10-31T07:25:16;99313.19;;;13.00
20490;BMP280;10403;54.092;12.122;2023-10-31T07:27:44;99284.09;;;12.86
20490;BMP280;10403;54.092;12.122;2023-10-31T07:30:12;99301.91;;;12.98
20490;BMP280;10403;54.092;12.122;2023-10-31T07:32:39;99300.91;;;13.01
20490;BMP280;10403;54.092;12.122;2023-10-31T07:35:07;99301.59;;;13.04
20490;BMP280;10403;54.092;12.122;2023-10-31T07:37:34;99301.59;;;13.04
20490;BMP280;10403;54.092;12.122;2023-10-31T07:40:03;99316.88;;;13.15
20490;BMP280;10403;54.092;12.122;2023-10-31T07:42:31;99312.50;;;13.15
20490;BMP280;10403;54.092;12.122;2023-10-31T07:44:58;99284.44;;;12.97
20490;BMP280;10403;54.092;12.122;2023-10-31T07:47:26;99312.50;;;13.15
20490;BMP280;10403;54.092;12.122;2023-10-31T07:49:53;99321.88;;;13.21
20490;BMP280;10403;54.092;12.122;2023-10-31T07:52:21;99301.97;;;13.15
20490;BMP280;10403;54.092;12.122;2023-10-31T07:54:48;99302.84;;;13.16
20490;BMP280;10403;54.092;12.122;2023-10-31T07:57:16;99273.88;;;12.98
20490;BMP280;10403;54.092;12.122;2023-10-31T07:59:44;99294.31;;;13.11
20490;BMP280;10403;54.092;12.122;2023-10-31T08:02:12;99304.63;;;13.15
20490;BMP280;10403;54.092;12.122;2023-10-31T08:04:40;99293.25;;;13.15
20490;BMP280;10403;54.092;12.122;2023-10-31T08:07:07;99281.31;;;13.08
20490;BMP280;10403;54.092;12.122;2023-10-31T08:09:34;99317.63;;;13.36
20490;BMP280;10403;54.092;12.122;2023-10-31T08:12:02;99314.09;;;13.37
20490;BMP280;10403;54.092;12.122;2023-10-31T08:14:30;99295.25;;;13.28
20490;BMP280;10403;54.092;12.122;2023-10-31T08:16:57;99300.25;;;13.33
20490;BMP280;10403;54.092;12.122;2023-10-31T08:19:25;99303.44;;;13.40
20490;BMP280;10403;54.092;12.122;2023-10-31T08:21:53;99302.59;;;13.39
20490;BMP280;10403;54.092;12.122;2023-10-31T08:24:27;99312.50;;;13.51
20490;BMP280;10403;54.092;12.122;2023-10-31T08:26:55;99323.69;;;13.55
20490;BMP280;10403;54.092;12.122;2023-10-31T08:29:22;99309.97;;;13.50
20490;BMP280;10403;54.092;12.122;2023-10-31T08:31:50;99310.81;;;13.50
20490;BMP280;10403;54.092;12.122;2023-10-31T08:34:17;99304.78;;;13.48
20490;BMP280;10403;54.092;12.122;2023-10-31T08:36:45;99300.38;;;13.49
20490;BMP280;10403;54.092;12.122;2023-10-31T08:39:12;99285.00;;;13.41
20490;BMP280;10403;54.092;12.122;2023-10-31T08:41:57;99314.19;;;13.52
20490;BMP280;10403;54.092;12.122;2023-10-31T08:44:25;99300.50;;;13.46
20490;BMP280;10403;54.092;12.122;2023-10-31T08:46:53;99307.53;;;13.45
20490;BMP280;10403;54.092;12.122;2023-10-31T08:49:20;99304.84;;;13.47
20490;BMP280;10403;54.092;12.122;2023-10-31T08:51:48;99315.03;;;13.53
20490;BMP280;10403;54.092;12.122;2023-10-31T08:54:15;99320.28;;;13.53
20490;BMP280;10403;54.092;12.122;2023-10-31T08:56:42;99322.00;;;13.54
20490;BMP280;10403;54.092;12.122;2023-10-31T08:59:10;99314.34;;;13.49
20490;BMP280;10403;54.092;12.122;2023-10-31T09:01:39;99328.75;;;13.59
20490;BMP280;10403;54.092;12.122;2023-10-31T09:04:06;99322.72;;;13.57
20490;BMP280;10403;54.092;12.122;2023-10-31T09:06:34;99319.09;;;13.60
20490;BMP280;10403;54.092;12.122;2023-10-31T09:09:02;99312.19;;;13.57
20490;BMP280;10403;54.092;12.122;2023-10-31T09:11:31;99333.53;;;13.68
20490;BMP280;10403;54.092;12.122;2023-10-31T09:14:02;99328.28;;;13.68
20490;BMP280;10403;54.092;12.122;2023-10-31T09:16:31;99311.03;;;13.63
20490;BMP280;10403;54.092;12.122;2023-10-31T09:18:58;99306.03;;;13.58
20490;BMP280;10403;54.092;12.122;2023-10-31T09:21:26;99324.50;;;13.74
20490;BMP280;10403;54.092;12.122;2023-10-31T09:23:53;99318.63;;;13.69
20490;BMP280;10403;54.092;12.122;2023-10-31T09:26:22;99324.56;;;13.73
20490;BMP280;10403;54.092;12.122;2023-10-31T09:28:49;99333.16;;;13.76
20490;BMP280;10403;54.092;12.122;2023-10-31T09:31:18;99298.28;;;13.55
20490;BMP280;10403;54.092;12.122;2023-10-31T09:33:46;99305.97;;;13.60
20490;BMP280;10403;54.092;12.122;2023-10-31T09:36:14;99324.88;;;13.66
20490;BMP280;10403;54.092;12.122;2023-10-31T09:38:41;99343.69;;;13.76
20490;BMP280;10403;54.092;12.122;2023-10-31T09:41:12;99338.50;;;13.75
20490;BMP280;10403;54.092;12.122;2023-10-31T09:43:42;99338.72;;;13.70
20490;BMP280;10403;54.092;12.122;2023-10-31T09:46:10;99305.09;;;13.59
20490;BMP280;10403;54.092;12.122;2023-10-31T09:48:38;99333.31;;;13.73
20490;BMP280;10403;54.092;12.122;2023-10-31T09:51:08;99308.47;;;13.61
20490;BMP280;10403;54.092;12.122;2023-10-31T09:53:37;99341.75;;;13.80
20490;BMP280;10403;54.092;12.122;2023-10-31T09:56:09;99335.00;;;13.74
20490;BMP280;10403;54.092;12.122;2023-10-31T09:58:37;99321.19;;;13.70
20490;BMP280;10403;54.092;12.122;2023-10-31T10:01:06;99334.63;;;13.82
20490;BMP280;10403;54.092;12.122;2023-10-31T10:03:34;99325.41;;;13.73
20490;BMP280;10403;54.092;12.122;2023-10-31T10:06:02;99340.91;;;13.79
20490;BMP280;10403;54.092;12.122;2023-10-31T10:08:30;99350.63;;;13.77
20490;BMP280;10403;54.092;12.122;2023-10-31T10:11:00;99336.19;;;13.68
20490;BMP280;10403;54.092;12.122;2023-10-31T10:13:28;99345.75;;;13.69
20490;BMP280;10403;54.092;12.122;2023-10-31T10:15:56;99354.25;;;13.75
20490;BMP280;10403;54.092;12.122;2023-10-31T10:18:32;99353.47;;;13.73
20490;BMP280;10403;54.092;12.122;2023-10-31T10:21:03;99336.31;;;13.65
20490;BMP280;10403;54.092;12.122;2023-10-31T10:23:32;99315.16;;;13.51
20490;BMP280;10403;54.092;12.122;2023-10-31T10:26:03;99324.69;;;13.52
20490;BMP280;10403;54.092;12.122;2023-10-31T10:28:30;99336.78;;;13.56
20490;BMP280;10403;54.092;12.122;2023-10-31T10:31:00;99316.19;;;13.47
20490;BMP280;10403;54.092;12.122;2023-10-31T10:33:28;99329.03;;;13.53
20490;BMP280;10403;54.092;12.122;2023-10-31T10:35:55;99334.00;;;13.59
20490;BMP280;10403;54.092;12.122;2023-10-31T10:38:26;99337.47;;;13.60
20490;BMP280;10403;54.092;12.122;2023-10-31T10:40:56;99292.53;;;13.30
20490;BMP280;10403;54.092;12.122;2023-10-31T10:43:26;99326.72;;;13.47
20490;BMP280;10403;54.092;12.122;2023-10-31T10:45:57;99324.88;;;13.49
20490;BMP280;10403;54.092;12.122;2023-10-31T10:48:28;99322.38;;;13.46
20490;BMP280;10403;54.092;12.122;2023-10-31T10:51:21;99323.31;;;13.45
20490;BMP280;10403;54.092;12.122;2023-10-31T10:54:09;99323.38;;;13.44
20490;BMP280;10403;54.092;12.122;2023-10-31T10:56:46;99328.88;;;13.39
20490;BMP280;10403;54.092;12.122;2023-10-31T10:59:21;99332.81;;;13.48
20490;BMP280;10403;54.092;12.122;2023-10-31T11:01:55;99300.41;;;13.30
20490;BMP280;10403;54.092;12.122;2023-10-31T11:04:24;99321.75;;;13.41
20490;BMP280;10403;54.092;12.122;2023-10-31T11:06:52;99331.97;;;13.47
20490;BMP280;10403;54.092;12.122;2023-10-31T11:09:21;99336.28;;;13.48
20490;BMP280;10403;54.092;12.122;2023-10-31T11:11:51;99327.84;;;13.42
20490;BMP280;10403;54.092;12.122;2023-10-31T11:14:20;99283.47;;;13.18
20490;BMP280;10403;54.092;12.122;2023-10-31T11:16:56;99329.41;;;13.46
20490;BMP280;10403;54.092;12.122;2023-10-31T11:19:29;99309.69;;;13.37
20490;BMP280;10403;54.092;12.122;2023-10-31T11:22:02;99309.69;;;13.37
20490;BMP280;10403;54.092;12.122;2023-10-31T11:24:33;99334.44;;;13.50
20490;BMP280;10403;54.092;12.122;2023-10-31T11:27:07;99323.44;;;13.42
20490;BMP280;10403;54.092;12.122;2023-10-31T11:29:38;99317.91;;;13.48
20490;BMP280;10403;54.092;12.122;2023-10-31T11:32:10;99323.69;;;13.55
20490;BMP280;10403;54.092;12.122;2023-10-31T11:34:42;99312.41;;;13.53
20490;BMP280;10403;54.092;12.122;2023-10-31T11:37:26;99325.53;;;13.53
20490;BMP280;10403;54.092;12.122;2023-10-31T11:40:19;99339.78;;;13.49
20490;BMP280;10403;54.092;12.122;2023-10-31T11:42:51;99351.75;;;13.54
20490;BMP280;10403;54.092;12.122;2023-10-31T11:48:04;99337.53;;;13.41
20490;BMP280;10403;54.092;12.122;2023-10-31T11:50:34;99330.69;;;13.37
20490;BMP280;10403;54.092;12.122;2023-10-31T11:53:11;99340.91;;;13.43
20490;BMP280;10403;54.092;12.122;2023-10-31T11:55:42;99346.72;;;13.50
20490;BMP280;10403;54.092;12.122;2023-10-31T11:58:23;99341.94;;;13.41
20490;BMP280;10403;54.092;12.122;2023-10-31T12:01:05;99347.94;;;13.43
20490;BMP280;10403;54.092;12.122;2023-10-31T12:03:43;99334.91;;;13.41
20490;BMP280;10403;54.092;12.122;2023-10-31T12:06:19;99326.50;;;13.33
20490;BMP280;10403;54.092;12.122;2023-10-31T12:08:50;99333.31;;;13.37
20490;BMP280;10403;54.092;12.122;2023-10-31T12:11:21;99329.13;;;13.33
20490;BMP280;10403;54.092;12.122;2023-10-31T12:14:03;99345.41;;;13.41
20490;BMP280;10403;54.092;12.122;2023-10-31T12:16:35;99342.00;;;13.39
20490;BMP280;10403;54.092;12.122;2023-10-31T12:19:05;99341.66;;;13.28
20490;BMP280;10403;54.092;12.122;2023-10-31T12:21:46;99361.78;;;13.46
20490;BMP280;10403;54.092;12.122;2023-10-31T12:24:18;99353.47;;;13.37
20490;BMP280;10403;54.092;12.122;2023-10-31T12:26:47;99374.28;;;13.41
20490;BMP280;10403;54.092;12.122;2023-10-31T12:29:18;99350.25;;;13.31
20490;BMP280;10403;54.092;12.122;2023-10-31T12:31:53;99372.72;;;13.37
20490;BMP280;10403;54.092;12.122;2023-10-31T12:34:35;99362.09;;;13.21
20490;BMP280;10403;54.092;12.122;2023-10-31T12:37:04;99409.44;;;13.20
20490;BMP280;10403;54.092;12.122;2023-10-31T12:39:35;99444.97;;;13.27
20490;BMP280;10403;54.092;12.122;2023-10-31T12:42:05;99466.00;;;13.07
20490;BMP280;10403;54.092;12.122;2023-10-31T12:44:38;99454.47;;;12.90
20490;BMP280;10403;54.092;12.122;2023-10-31T12:47:23;99475.41;;;12.72
20490;BMP280;10403;54.092;12.122;2023-10-31T12:50:11;99489.91;;;12.60
20490;BMP280;10403;54.092;12.122;2023-10-31T12:52:54;99485.94;;;12.30
20490;BMP280;10403;54.092;12.122;2023-10-31T12:55:27;99539.59;;;12.43
20490;BMP280;10403;54.092;12.122;2023-10-31T12:58:01;99541.59;;;12.14
20490;BMP280;10403;54.092;12.122;2023-10-31T13:00:34;99560.19;;;12.08
20490;BMP280;10403;54.092;12.122;2023-10-31T13:03:09;99595.81;;;12.14
20490;BMP280;10403;54.092;12.122;2023-10-31T13:05:41;99607.38;;;12.08
20490;BMP280;10403;54.092;12.122;2023-10-31T13:08:15;99605.91;;;12.01
20490;BMP280;10403;54.092;12.122;2023-10-31T13:10:45;99591.78;;;11.82
20490;BMP280;10403;54.092;12.122;2023-10-31T13:13:15;99573.59;;;11.54
20490;BMP280;10403;54.092;12.122;2023-10-31T13:15:58;99627.41;;;11.63
20490;BMP280;10403;54.092;12.122;2023-10-31T13:18:30;99620.59;;;11.57
20490;BMP280;10403;54.092;12.122;2023-10-31T13:21:00;99657.13;;;11.62
20490;BMP280;10403;54.092;12.122;2023-10-31T13:23:30;99670.97;;;11.65
20490;BMP280;10403;54.092;12.122;2023-10-31T13:25:58;99675.56;;;11.59
20490;BMP280;10403;54.092;12.122;2023-10-31T13:28:27;99645.59;;;11.42
20490;BMP280;10403;54.092;12.122;2023-10-31T13:30:58;99684.44;;;11.55
20490;BMP280;10403;54.092;12.122;2023-10-31T13:33:25;99676.06;;;11.45
20490;BMP280;10403;54.092;12.122;2023-10-31T13:35:56;99684.22;;;11.36
20490;BMP280;10403;54.092;12.122;2023-10-31T13:38:27;99713.56;;;11.45
20490;BMP280;10403;54.092;12.122;2023-10-31T13:40:54;99700.44;;;11.21
20490;BMP280;10403;54.092;12.122;2023-10-31T13:43:22;99719.91;;;11.38
20490;BMP280;10403;54.092;12.122;2023-10-31T13:45:50;99746.19;;;11.35
20490;BMP280;10403;54.092;12.122;2023-10-31T13:48:18;99747.16;;;11.33
20490;BMP280;10403;54.092;12.122;2023-10-31T13:50:46;99756.81;;;11.31
20490;BMP280;10403;54.092;12.122;2023-10-31T13:53:14;99786.16;;;11.40
20490;BMP280;10403;54.092;12.122;2023-10-31T13:55:43;99784.09;;;11.24
20490;BMP280;10403;54.092;12.122;2023-10-31T13:58:11;99757.66;;;11.05
20490;BMP280;10403;54.092;12.122;2023-10-31T14:00:39;99796.16;;;11.28
20490;BMP280;10403;54.092;12.122;2023-10-31T14:03:06;99828.06;;;11.40
20490;BMP280;10403;54.092;12.122;2023-10-31T14:05:35;99856.03;;;11.38
20490;BMP280;10403;54.092;12.122;2023-10-31T14:08:03;99832.03;;;11.26
20490;BMP280;10403;54.092;12.122;2023-10-31T14:10:32;99832.13;;;11.23
20490;BMP280;10403;54.092;12.122;2023-10-31T14:12:59;99835.75;;;11.17
20490;BMP280;10403;54.092;12.122;2023-10-31T14:15:26;99855.69;;;11.23
20490;BMP280;10403;54.092;12.122;2023-10-31T14:17:56;99868.81;;;11.21
20490;BMP280;10403;54.092;12.122;2023-10-31T14:20:24;99865.34;;;11.21